createdAt,value
2019-05-22T00:00:09.457Z,58.76
2019-05-22T00:01:09.397Z,58.67
2019-05-22T00:03:01.466Z,58.76
2019-05-22T00:04:01.431Z,58.86
2019-05-22T00:05:53.519Z,58.76
2019-05-22T00:06:53.468Z,58.76
2019-05-22T00:08:45.553Z,58.57
2019-05-22T00:09:45.554Z,58.67
2019-05-22T00:11:37.590Z,59.05
2019-05-22T00:12:46.024Z,58.86
2019-05-22T00:14:29.603Z,58.67
2019-05-22T00:15:29.582Z,58.67
2019-05-22T00:17:21.658Z,58.76
2019-05-22T00:18:21.601Z,58.86
2019-05-22T00:20:13.695Z,58.67
2019-05-22T00:21:13.649Z,58.67
2019-05-22T00:23:05.715Z,58.67
2019-05-22T00:24:05.671Z,58.67
2019-05-22T00:25:57.821Z,58.76
2019-05-22T00:26:57.705Z,58.95
2019-05-22T00:28:49.791Z,58.76
2019-05-22T00:29:49.738Z,58.67
2019-05-22T00:31:41.911Z,59.05
2019-05-22T00:32:42.107Z,58.86
2019-05-22T00:34:33.977Z,59.05
2019-05-22T00:35:34.142Z,59.05
2019-05-22T00:37:25.981Z,58.57
2019-05-22T00:38:26.175Z,59.05
2019-05-22T00:40:18.028Z,58.95
2019-05-22T00:41:17.977Z,58.86
2019-05-22T00:43:14.043Z,58.67
2019-05-22T00:44:10.019Z,58.76
2019-05-22T00:46:02.105Z,58.67
2019-05-22T00:47:02.048Z,58.57
2019-05-22T00:48:54.124Z,58.57
2019-05-22T00:49:54.082Z,58.67
2019-05-22T00:51:46.176Z,58.47
2019-05-22T00:52:46.114Z,58.67
2019-05-22T00:54:38.202Z,58.67
2019-05-22T00:55:38.150Z,58.57
2019-05-22T00:57:30.225Z,58.47
2019-05-22T00:58:30.184Z,58.57
2019-05-22T01:00:22.274Z,58.57
2019-05-22T01:01:22.488Z,58.86
2019-05-22T01:03:14.309Z,58.57
2019-05-22T01:04:14.484Z,58.67
2019-05-22T01:06:06.228Z,58.28
2019-05-22T01:07:06.417Z,58.47
2019-05-22T01:08:58.267Z,58.57
2019-05-22T01:09:58.454Z,58.47
2019-05-22T01:11:50.290Z,58.09
2019-05-22T01:12:50.255Z,58.47
2019-05-22T01:14:43.282Z,58.47
2019-05-22T01:15:42.290Z,58.57
2019-05-22T01:17:34.390Z,58.47
2019-05-22T01:18:34.340Z,58.57
2019-05-22T01:20:26.391Z,58.76
2019-05-22T01:21:26.371Z,58.37
2019-05-22T01:23:18.546Z,58.47
2019-05-22T01:24:18.497Z,58.47
2019-05-22T01:26:10.564Z,58.57
2019-05-22T01:27:10.554Z,58.57
2019-05-22T01:29:02.747Z,58.47
2019-05-22T01:30:02.940Z,58.09
2019-05-22T01:31:54.837Z,58.28
2019-05-22T01:32:55.040Z,58.28
2019-05-22T01:34:46.889Z,58.28
2019-05-22T01:35:47.072Z,58.67
2019-05-22T01:37:38.905Z,57.99
2019-05-22T01:38:38.868Z,58.67
2019-05-22T01:40:30.960Z,58.57
2019-05-22T01:41:30.906Z,57.99
2019-05-22T01:43:22.976Z,58.28
2019-05-22T01:44:22.941Z,58.28
2019-05-22T01:46:15.028Z,58.09
2019-05-22T01:47:14.973Z,58.18
2019-05-22T01:49:07.053Z,58.47
2019-05-22T01:50:07.007Z,58.57
2019-05-22T01:51:59.095Z,58.67
2019-05-22T01:52:59.040Z,58.57
2019-05-22T01:54:51.133Z,58.18
2019-05-22T01:55:51.309Z,58.47
2019-05-22T01:57:43.158Z,58.37
2019-05-22T01:58:43.341Z,58.09
2019-05-22T02:00:35.179Z,58.28
2019-05-22T02:01:35.146Z,58.09
2019-05-22T02:03:27.228Z,58.47
2019-05-22T02:04:27.179Z,58.47
2019-05-22T02:06:19.269Z,58.47
2019-05-22T02:07:19.211Z,57.99
2019-05-22T02:09:11.303Z,58.28
2019-05-22T02:10:11.250Z,58.57
2019-05-22T02:12:03.338Z,58.37
2019-05-22T02:13:03.515Z,58.28
2019-05-22T02:14:55.371Z,57.90
2019-05-22T02:15:55.547Z,57.99
2019-05-22T02:17:47.405Z,58.09
2019-05-22T02:18:47.582Z,58.57
2019-05-22T02:20:39.455Z,58.37
2019-05-22T02:21:39.384Z,58.18
2019-05-22T02:23:31.492Z,58.47
2019-05-22T02:24:31.440Z,58.28
2019-05-22T02:26:23.511Z,58.18
2019-05-22T02:27:23.717Z,58.09
2019-05-22T02:29:15.624Z,58.09
2019-05-22T02:30:15.835Z,57.90
2019-05-22T02:59:24.056Z,57.70
2019-05-22T03:00:24.006Z,57.90
2019-05-22T03:02:16.171Z,57.51
2019-05-22T03:03:16.136Z,58.18
2019-05-22T03:05:08.225Z,57.60
2019-05-22T03:06:08.169Z,57.99
2019-05-22T03:08:00.263Z,57.99
2019-05-22T03:09:00.205Z,57.99
2019-05-22T03:10:52.273Z,57.99
2019-05-22T03:11:52.472Z,58.09
2019-05-22T03:13:44.335Z,58.18
2019-05-22T03:14:44.504Z,57.90
2019-05-22T03:16:36.338Z,58.09
2019-05-22T03:17:36.305Z,57.99
2019-05-22T03:19:28.497Z,57.80
2019-05-22T03:20:28.439Z,57.80
2019-05-22T03:22:20.532Z,57.70
2019-05-22T03:23:20.482Z,57.60
2019-05-22T03:25:12.668Z,58.09
2019-05-22T03:26:12.624Z,57.80
2019-05-22T03:28:04.692Z,57.70
2019-05-22T03:29:04.653Z,57.90
2019-05-22T03:30:56.744Z,57.51
2019-05-22T03:31:56.916Z,57.70
2019-05-22T03:33:48.769Z,57.60
2019-05-22T03:34:48.953Z,57.51
2019-05-22T03:36:40.800Z,57.80
2019-05-22T03:37:40.751Z,57.60
2019-05-22T03:39:32.956Z,57.60
2019-05-22T03:40:32.890Z,57.80
2019-05-22T03:42:24.974Z,57.51
2019-05-22T03:43:24.927Z,57.60
2019-05-22T03:45:17.000Z,57.99
2019-05-22T03:46:16.958Z,57.99
2019-05-22T03:48:09.060Z,57.51
2019-05-22T03:49:26.109Z,58.09
2019-05-22T03:51:01.168Z,57.60
2019-05-22T03:52:01.131Z,57.51
2019-05-22T03:53:53.325Z,57.51
2019-05-22T03:54:53.266Z,58.09
2019-05-22T03:56:45.353Z,57.99
2019-05-22T03:57:45.538Z,57.42
2019-05-22T03:59:37.373Z,57.70
2019-05-22T04:00:42.940Z,57.42
2019-05-22T04:02:29.422Z,57.42
2019-05-22T04:03:29.604Z,56.93
2019-05-22T04:05:21.459Z,57.42
2019-05-22T04:06:21.396Z,57.35
2019-05-22T04:08:13.475Z,57.51
2019-05-22T04:09:13.437Z,57.32
2019-05-22T04:11:05.486Z,57.42
2019-05-22T04:12:05.369Z,57.42
2019-05-22T04:13:57.464Z,57.25
2019-05-22T04:14:57.405Z,57.32
2019-05-22T04:16:49.497Z,57.51
2019-05-22T04:17:49.442Z,57.32
2019-05-22T04:19:49.646Z,57.45
2019-05-22T04:20:41.471Z,57.32
2019-05-22T04:22:33.678Z,57.25
2019-05-22T04:23:33.607Z,57.42
2019-05-22T04:25:25.598Z,57.45
2019-05-22T04:26:25.541Z,57.45
2019-05-22T04:28:17.612Z,57.42
2019-05-22T04:29:17.591Z,57.54
2019-05-22T04:31:09.767Z,57.54
2019-05-22T04:32:09.950Z,57.51
2019-05-22T04:34:01.781Z,57.54
2019-05-22T04:35:01.985Z,57.45
2019-05-22T04:36:53.829Z,57.15
2019-05-22T04:37:54.012Z,57.06
2019-05-22T04:39:45.852Z,57.45
2019-05-22T04:40:46.050Z,57.06
2019-05-22T04:42:37.903Z,57.06
2019-05-22T04:43:37.855Z,57.54
2019-05-22T04:45:29.918Z,57.06
2019-05-22T04:46:29.888Z,57.15
2019-05-22T04:48:22.093Z,57.45
2019-05-22T04:49:22.022Z,57.35
2019-05-22T04:51:14.096Z,57.35
2019-05-22T04:52:14.083Z,56.87
2019-05-22T04:54:06.239Z,57.15
2019-05-22T04:55:06.431Z,57.13
2019-05-22T04:56:58.263Z,57.06
2019-05-22T04:57:58.225Z,57.15
2019-05-22T04:59:50.312Z,57.15
2019-05-22T05:00:50.493Z,57.25
2019-05-22T05:02:42.329Z,57.25
2019-05-22T05:03:42.533Z,57.25
2019-05-22T05:05:34.379Z,57.25
2019-05-22T05:06:34.327Z,57.25
2019-05-22T05:08:26.417Z,56.87
2019-05-22T05:09:26.361Z,56.87
2019-05-22T05:11:18.452Z,57.45
2019-05-22T05:12:18.413Z,56.77
2019-05-22T05:14:10.490Z,57.25
2019-05-22T05:15:10.430Z,56.87
2019-05-22T05:17:02.503Z,56.96
2019-05-22T05:18:02.699Z,57.06
2019-05-22T05:19:54.565Z,56.67
2019-05-22T05:20:54.731Z,57.15
2019-05-22T05:22:46.590Z,57.03
2019-05-22T05:23:46.537Z,57.51
2019-05-22T05:25:38.631Z,57.51
2019-05-22T05:26:38.573Z,57.51
2019-05-22T05:28:30.676Z,57.90
2019-05-22T05:29:30.612Z,57.51
2019-05-22T05:31:22.488Z,57.42
2019-05-22T05:32:22.434Z,57.51
2019-05-22T05:34:14.550Z,56.93
2019-05-22T05:35:14.510Z,57.03
2019-05-22T05:37:06.650Z,57.32
2019-05-22T05:38:06.601Z,57.60
2019-05-22T05:39:58.473Z,57.32
2019-05-22T05:40:58.667Z,57.51
2019-05-22T05:42:50.521Z,57.70
2019-05-22T05:43:50.705Z,57.22
2019-05-22T05:45:42.549Z,57.35
2019-05-22T05:46:42.499Z,57.25
2019-05-22T05:48:34.589Z,57.54
2019-05-22T05:49:34.534Z,57.83
2019-05-22T05:51:26.610Z,57.83
2019-05-22T05:52:26.571Z,58.09
2019-05-22T05:54:18.663Z,57.22
2019-05-22T05:55:18.603Z,57.80
2019-05-22T05:57:10.695Z,57.51
2019-05-22T05:58:10.635Z,57.60
2019-05-22T06:00:02.610Z,57.51
2019-05-22T06:01:02.807Z,57.51
2019-05-22T06:02:56.722Z,56.93
2019-05-22T06:03:54.843Z,56.84
2019-05-22T06:05:46.717Z,56.84
2019-05-22T06:06:46.873Z,56.84
2019-05-22T06:08:38.739Z,56.74
2019-05-22T06:09:38.918Z,56.45
2019-05-22T06:11:30.746Z,56.36
2019-05-22T06:12:30.708Z,56.07
2019-05-22T06:14:22.902Z,56.16
2019-05-22T06:15:22.739Z,56.07
2019-05-22T06:17:14.917Z,55.88
2019-05-22T06:18:14.878Z,55.98
2019-05-22T06:20:07.077Z,55.88
2019-05-22T06:21:07.267Z,55.49
2019-05-22T06:22:59.102Z,56.74
2019-05-22T06:23:59.281Z,55.98
2019-05-22T06:25:51.141Z,56.26
2019-05-22T06:26:51.088Z,55.78
2019-05-22T06:28:43.186Z,55.68
2019-05-22T06:29:43.121Z,55.88
2019-05-22T06:31:35.231Z,55.68
2019-05-22T06:32:35.394Z,55.98
2019-05-22T06:34:27.335Z,56.33
2019-05-22T06:35:27.556Z,55.88
2019-05-22T06:37:19.381Z,55.68
2019-05-22T06:38:19.324Z,55.76
2019-05-22T06:40:11.403Z,55.78
2019-05-22T06:41:11.590Z,55.59
2019-05-22T06:43:03.428Z,55.30
2019-05-22T06:44:03.624Z,55.40
2019-05-22T06:45:55.492Z,55.40
2019-05-22T06:46:55.426Z,56.07
2019-05-22T06:48:47.600Z,55.30
2019-05-22T06:49:47.563Z,55.40
2019-05-22T06:51:39.651Z,55.40
2019-05-22T06:52:39.595Z,55.30
2019-05-22T06:54:31.768Z,55.49
2019-05-22T06:55:31.734Z,55.40
2019-05-22T06:57:23.926Z,55.04
2019-05-22T06:58:23.869Z,55.23
2019-05-22T07:00:15.967Z,55.43
2019-05-22T07:01:15.933Z,55.62
2019-05-22T07:03:08.076Z,55.52
2019-05-22T07:04:08.051Z,55.33
2019-05-22T07:06:00.137Z,55.43
2019-05-22T07:07:00.081Z,55.43
2019-05-22T07:08:52.149Z,55.43
2019-05-22T07:09:52.110Z,55.43
2019-05-22T07:11:44.306Z,55.52
2019-05-22T07:12:44.265Z,55.81
2019-05-22T07:14:36.446Z,55.71
2019-05-22T07:15:36.384Z,56.10
2019-05-22T07:17:28.385Z,56.20
2019-05-22T07:18:28.371Z,56.10
2019-05-22T07:20:20.520Z,55.81
2019-05-22T07:21:33.405Z,55.62
2019-05-22T07:23:12.537Z,55.71
2019-05-22T07:24:12.489Z,55.81
2019-05-22T07:26:04.565Z,56.00
2019-05-22T07:27:04.525Z,56.20
2019-05-22T07:29:00.018Z,56.22
2019-05-22T07:29:56.455Z,55.90
2019-05-22T07:31:48.544Z,56.00
2019-05-22T07:32:48.722Z,56.29
2019-05-22T07:34:40.573Z,56.29
2019-05-22T07:35:56.703Z,56.51
2019-05-22T07:37:32.612Z,56.38
2019-05-22T07:38:32.555Z,56.10
2019-05-22T07:40:24.753Z,56.22
2019-05-22T07:41:24.927Z,56.41
2019-05-22T07:43:16.786Z,56.29
2019-05-22T07:44:16.962Z,56.38
2019-05-22T07:46:08.807Z,56.22
2019-05-22T07:47:08.764Z,56.22
2019-05-22T07:49:00.853Z,55.93
2019-05-22T07:50:00.842Z,55.55
2019-05-22T07:52:00.661Z,55.83
2019-05-22T07:52:52.933Z,55.93
2019-05-22T07:54:45.127Z,55.93
2019-05-22T07:55:45.301Z,55.93
2019-05-22T07:57:37.161Z,55.74
2019-05-22T07:58:37.111Z,55.93
2019-05-22T08:00:29.098Z,55.83
2019-05-22T08:01:29.038Z,56.41
2019-05-22T08:03:21.167Z,56.22
2019-05-22T08:04:21.078Z,56.22
2019-05-22T08:06:13.167Z,55.83
2019-05-22T08:07:13.338Z,56.32
2019-05-22T08:09:05.189Z,56.22
2019-05-22T08:10:05.176Z,56.32
2019-05-22T08:11:57.334Z,56.25
2019-05-22T08:12:57.279Z,56.35
2019-05-22T08:14:49.364Z,56.03
2019-05-22T08:15:49.312Z,56.15
2019-05-22T08:17:41.381Z,55.77
2019-05-22T08:18:41.344Z,56.15
2019-05-22T08:20:33.437Z,56.15
2019-05-22T08:21:33.378Z,55.87
2019-05-22T08:23:25.453Z,56.15
2019-05-22T08:24:25.413Z,55.48
2019-05-22T08:26:17.603Z,55.57
2019-05-22T08:27:17.553Z,55.57
2019-05-22T08:29:10.093Z,55.41
2019-05-22T08:30:09.690Z,55.41
2019-05-22T08:32:01.956Z,55.19
2019-05-22T08:33:01.825Z,54.93
2019-05-22T08:34:53.921Z,55.02
2019-05-22T08:35:53.861Z,54.93
2019-05-22T08:37:45.997Z,54.93
2019-05-22T08:38:45.897Z,54.93
2019-05-22T08:40:41.975Z,54.93
2019-05-22T08:43:49.317Z,55.02
2019-05-22T08:44:32.361Z,55.12
2019-05-22T08:46:24.938Z,54.74
2019-05-22T08:47:23.912Z,54.54
2019-05-22T08:49:15.454Z,54.83
2019-05-22T08:50:16.445Z,54.64
2019-05-22T08:52:22.569Z,54.83
2019-05-22T08:53:07.506Z,54.35
2019-05-22T08:55:00.516Z,53.67
2019-05-22T08:55:59.565Z,54.16
2019-05-22T08:57:51.048Z,53.67
2019-05-22T08:58:51.601Z,53.89
2019-05-22T09:00:43.623Z,53.22
2019-05-22T09:01:45.614Z,53.58
2019-05-22T09:03:36.503Z,53.22
2019-05-22T09:04:35.032Z,53.22
2019-05-22T09:06:27.675Z,52.37
2019-05-22T09:07:27.156Z,52.28
2019-05-22T09:09:18.616Z,52.57
2019-05-22T09:10:19.217Z,52.47
2019-05-22T09:12:11.333Z,52.47
2019-05-22T09:13:11.333Z,52.19
2019-05-22T09:15:04.314Z,52.09
2019-05-22T09:16:02.783Z,52.28
2019-05-22T09:17:54.618Z,51.99
2019-05-22T09:18:54.810Z,51.99
2019-05-22T09:20:49.677Z,52.09
2019-05-22T09:21:46.614Z,52.19
2019-05-22T09:23:38.785Z,52.19
2019-05-22T09:24:38.752Z,51.89
2019-05-22T09:26:30.944Z,51.99
2019-05-22T09:27:30.891Z,52.28
2019-05-22T09:29:22.975Z,51.61
2019-05-22T09:30:22.922Z,51.51
2019-05-22T09:32:15.006Z,50.93
2019-05-22T09:33:15.186Z,51.32
2019-05-22T09:35:07.089Z,51.41
2019-05-22T09:36:07.030Z,51.51
2019-05-22T09:37:59.180Z,51.03
2019-05-22T09:38:59.127Z,50.96
2019-05-22T09:40:51.214Z,50.18
2019-05-22T09:41:51.202Z,50.67
2019-05-22T09:43:43.354Z,50.40
2019-05-22T09:44:43.531Z,49.95
2019-05-22T09:46:35.372Z,48.71
2019-05-22T09:47:35.373Z,48.03
2019-05-22T09:49:27.531Z,48.88
2019-05-22T09:50:27.698Z,49.00
2019-05-22T09:52:19.542Z,48.30
2019-05-22T09:53:19.734Z,49.46
2019-05-22T09:55:12.427Z,50.11
2019-05-22T09:56:12.340Z,50.79
2019-05-22T09:58:03.721Z,51.15
2019-05-22T09:59:03.674Z,51.34
2019-05-22T10:00:55.867Z,51.56
2019-05-22T10:01:55.810Z,51.27
2019-05-22T10:03:47.882Z,51.17
2019-05-22T10:04:47.869Z,51.17
2019-05-22T10:06:39.939Z,51.56
2019-05-22T10:07:57.152Z,51.17
2019-05-22T10:09:31.951Z,51.29
2019-05-22T10:10:31.919Z,50.04
2019-05-22T10:12:24.001Z,49.10
2019-05-22T10:13:24.088Z,47.67
2019-05-22T10:15:16.326Z,46.63
2019-05-22T10:16:15.983Z,46.63
2019-05-22T10:18:08.006Z,46.44
2019-05-22T10:19:07.915Z,46.63
2019-05-22T10:21:00.000Z,48.32
2019-05-22T10:21:59.949Z,49.10
2019-05-22T10:23:52.130Z,49.85
2019-05-22T10:24:52.252Z,49.95
2019-05-22T10:26:44.161Z,50.04
2019-05-22T10:27:44.119Z,49.85
2019-05-22T10:29:36.304Z,49.55
2019-05-22T10:30:37.053Z,49.00
2019-05-22T10:32:31.926Z,46.83
2019-05-22T10:33:28.294Z,46.66
2019-05-22T10:35:20.388Z,45.88
2019-05-22T10:36:20.553Z,45.98
2019-05-22T10:38:12.477Z,45.10
2019-05-22T10:39:12.587Z,45.40
2019-05-22T10:41:04.475Z,45.20
2019-05-22T10:42:04.451Z,46.34
2019-05-22T10:43:56.466Z,46.44
2019-05-22T10:44:56.429Z,46.25
2019-05-22T10:46:48.533Z,46.05
2019-05-22T10:47:48.476Z,46.53
2019-05-22T10:49:40.572Z,46.73
2019-05-22T10:50:40.731Z,46.53
2019-05-22T10:52:32.693Z,45.20
2019-05-22T10:53:34.259Z,44.72
2019-05-22T10:55:24.720Z,44.84
2019-05-22T10:56:24.670Z,44.06
2019-05-22T10:58:16.838Z,44.09
2019-05-22T10:59:16.705Z,43.87
2019-05-22T11:01:08.792Z,44.72
2019-05-22T11:02:08.738Z,44.74
2019-05-22T11:04:01.011Z,44.72
2019-05-22T11:05:00.978Z,44.84
2019-05-22T11:06:53.263Z,44.35
2019-05-22T11:07:53.127Z,44.26
2019-05-22T11:09:45.304Z,44.18
2019-05-22T11:10:45.504Z,44.18
2019-05-22T11:12:37.578Z,43.89
2019-05-22T11:13:37.396Z,43.79
2019-05-22T11:15:29.462Z,44.64
2019-05-22T11:16:29.447Z,44.86
2019-05-22T11:18:21.501Z,44.09
2019-05-22T11:19:21.457Z,44.09
2019-05-22T11:21:14.366Z,43.72
2019-05-22T11:22:14.863Z,43.62
2019-05-22T11:24:05.598Z,43.52
2019-05-22T11:25:05.529Z,43.91
2019-05-22T11:26:57.610Z,44.67
2019-05-22T11:27:57.787Z,45.15
2019-05-22T11:29:49.733Z,44.98
2019-05-22T11:30:49.925Z,44.20
2019-05-22T11:32:41.783Z,43.91
2019-05-22T11:33:41.732Z,44.10
2019-05-22T11:35:33.810Z,45.25
2019-05-22T11:36:33.782Z,45.15
2019-05-22T11:38:25.958Z,44.01
2019-05-22T11:39:38.923Z,44.10
2019-05-22T11:41:17.990Z,44.03
2019-05-22T11:42:18.744Z,43.54
2019-05-22T11:44:10.109Z,43.26
2019-05-22T11:45:10.075Z,43.72
2019-05-22T11:47:02.188Z,43.72
2019-05-22T11:48:02.113Z,43.62
2019-05-22T11:49:54.237Z,42.96
2019-05-22T11:50:54.141Z,42.86
2019-05-22T11:52:46.228Z,43.35
2019-05-22T11:53:46.181Z,42.40
2019-05-22T11:55:45.279Z,42.38
2019-05-22T11:56:38.219Z,42.77
2019-05-22T11:58:30.303Z,42.94
2019-05-22T11:59:30.245Z,43.13
2019-05-22T12:01:22.368Z,42.79
2019-05-22T12:02:22.288Z,42.19
2019-05-22T12:04:14.375Z,42.67
2019-05-22T12:05:14.317Z,42.55
2019-05-22T12:07:07.204Z,43.06
2019-05-22T12:08:06.455Z,43.23
2019-05-22T12:09:58.610Z,43.23
2019-05-22T12:10:58.528Z,43.06
2019-05-22T12:12:51.817Z,42.96
2019-05-22T12:13:50.770Z,42.57
2019-05-22T12:15:42.712Z,42.46
2019-05-22T12:16:42.654Z,42.48
2019-05-22T12:18:34.867Z,42.17
2019-05-22T12:19:34.817Z,42.17
2019-05-22T12:21:26.910Z,41.49
2019-05-22T12:22:26.856Z,41.78
2019-05-22T12:24:28.534Z,41.22
2019-05-22T12:25:18.967Z,40.92
2019-05-22T12:27:11.056Z,40.83
2019-05-22T12:28:11.022Z,40.52
2019-05-22T12:30:03.128Z,40.44
2019-05-22T12:31:03.040Z,40.25
2019-05-22T12:32:56.867Z,39.86
2019-05-22T12:33:55.068Z,39.49
2019-05-22T12:35:47.137Z,38.81
2019-05-22T12:36:50.998Z,38.91
2019-05-22T12:38:39.193Z,39.95
2019-05-22T12:39:39.142Z,39.47
2019-05-22T12:41:31.234Z,39.47
2019-05-22T12:42:31.231Z,39.47
2019-05-22T12:44:23.142Z,39.67
2019-05-22T12:45:23.103Z,39.08
2019-05-22T12:47:15.247Z,38.40
2019-05-22T12:48:15.136Z,38.62
2019-05-22T12:50:07.270Z,38.13
2019-05-22T12:51:07.172Z,37.82
2019-05-22T12:52:59.259Z,38.60
2019-05-22T12:53:59.199Z,38.58
2019-05-22T12:55:51.394Z,38.58
2019-05-22T12:56:51.384Z,38.58
2019-05-22T12:58:43.413Z,38.50
2019-05-22T12:59:43.386Z,38.31
2019-05-22T13:01:35.581Z,37.63
2019-05-22T13:02:35.514Z,36.68
2019-05-22T13:04:27.609Z,37.34
2019-05-22T13:05:27.549Z,37.43
2019-05-22T13:07:19.723Z,37.53
2019-05-22T13:08:19.913Z,37.15
2019-05-22T13:10:11.779Z,37.53
2019-05-22T13:11:11.950Z,37.53
2019-05-22T13:13:03.789Z,37.26
2019-05-22T13:14:03.753Z,36.87
2019-05-22T13:15:55.848Z,36.68
2019-05-22T13:16:55.787Z,37.07
2019-05-22T13:18:47.882Z,36.97
2019-05-22T13:19:47.823Z,37.15
2019-05-22T13:21:40.014Z,36.85
2019-05-22T13:22:40.186Z,37.34
2019-05-22T13:24:32.033Z,37.90
2019-05-22T13:25:32.221Z,37.81
2019-05-22T13:27:24.108Z,38.09
2019-05-22T13:28:24.059Z,38.00
2019-05-22T13:30:16.202Z,38.29
2019-05-22T13:31:16.158Z,38.00
2019-05-22T13:33:08.269Z,38.46
2019-05-22T13:34:08.206Z,38.56
2019-05-22T13:36:00.269Z,39.04
2019-05-22T13:37:00.237Z,38.46
2019-05-22T13:38:52.330Z,38.48
2019-05-22T13:39:52.279Z,38.29
2019-05-22T13:41:44.400Z,38.19
2019-05-22T13:42:44.308Z,38.48
2019-05-22T13:44:36.401Z,38.58
2019-05-22T13:45:36.579Z,38.39
2019-05-22T13:47:28.408Z,38.58
2019-05-22T13:48:28.596Z,38.39
2019-05-22T13:50:20.856Z,38.39
2019-05-22T13:51:21.042Z,38.48
2019-05-22T13:53:12.897Z,38.66
2019-05-22T13:54:12.850Z,39.14
2019-05-22T13:56:04.935Z,39.34
2019-05-22T13:57:05.118Z,39.51
2019-05-22T13:58:56.972Z,40.19
2019-05-22T13:59:57.181Z,40.28
2019-05-22T14:01:48.992Z,39.61
2019-05-22T14:02:48.953Z,40.19
2019-05-22T14:04:40.967Z,40.00
2019-05-22T14:05:40.885Z,39.90
2019-05-22T14:07:32.956Z,40.00
2019-05-22T14:08:33.149Z,39.92
2019-05-22T14:10:25.007Z,39.53
2019-05-22T14:11:24.977Z,39.41
2019-05-22T14:13:17.144Z,40.09
2019-05-22T14:14:17.097Z,40.09
2019-05-22T14:16:09.156Z,40.28
2019-05-22T14:17:09.136Z,40.17
2019-05-22T14:19:01.215Z,40.46
2019-05-22T14:20:01.161Z,41.04
2019-05-22T14:21:53.409Z,40.84
2019-05-22T14:22:53.419Z,41.14
2019-05-22T14:24:45.271Z,41.41
2019-05-22T14:25:45.456Z,41.41
2019-05-22T14:27:41.500Z,40.84
2019-05-22T14:28:37.270Z,40.84
2019-05-22T14:30:29.459Z,40.75
2019-05-22T14:31:29.399Z,40.46
2019-05-22T14:33:21.472Z,40.84
2019-05-22T14:34:21.440Z,40.84
2019-05-22T14:36:13.648Z,40.94
2019-05-22T14:37:13.572Z,41.41
2019-05-22T14:39:05.656Z,41.50
2019-05-22T14:40:05.608Z,41.70
2019-05-22T14:41:57.773Z,41.60
2019-05-22T14:42:57.739Z,41.99
2019-05-22T14:44:49.829Z,41.89
2019-05-22T14:45:49.783Z,41.99
2019-05-22T14:47:41.843Z,42.18
2019-05-22T14:48:41.810Z,42.28
2019-05-22T14:50:33.891Z,42.28
2019-05-22T14:51:34.071Z,41.99
2019-05-22T14:53:25.912Z,41.79
2019-05-22T14:54:26.113Z,41.31
2019-05-22T14:56:17.963Z,41.50
2019-05-22T14:57:17.937Z,41.60
2019-05-22T14:59:10.008Z,41.31
2019-05-22T15:00:09.957Z,41.50
2019-05-22T15:02:02.136Z,41.79
2019-05-22T15:03:02.406Z,41.50
2019-05-22T15:04:54.157Z,41.79
2019-05-22T15:05:54.345Z,41.89
2019-05-22T15:07:46.211Z,41.50
2019-05-22T15:08:46.385Z,41.02
2019-05-22T15:10:38.224Z,41.29
2019-05-22T15:11:38.414Z,41.39
2019-05-22T15:13:30.272Z,41.58
2019-05-22T15:14:30.222Z,41.58
2019-05-22T15:16:22.288Z,41.77
2019-05-22T15:17:32.721Z,41.87
2019-05-22T15:19:14.340Z,41.67
2019-05-22T15:20:14.290Z,41.97
2019-05-22T15:22:06.478Z,41.97
2019-05-22T15:23:06.426Z,42.07
2019-05-22T15:24:58.613Z,42.35
2019-05-22T15:25:58.564Z,41.94
2019-05-22T15:27:50.548Z,42.33
2019-05-22T15:28:50.767Z,42.24
2019-05-22T15:30:42.580Z,43.10
2019-05-22T15:31:42.532Z,43.01
2019-05-22T15:33:34.595Z,43.20
2019-05-22T15:34:34.562Z,42.82
2019-05-22T15:36:26.649Z,42.72
2019-05-22T15:37:26.597Z,42.91
2019-05-22T15:39:18.666Z,42.52
2019-05-22T15:40:18.648Z,42.62
2019-05-22T15:42:10.877Z,42.33
2019-05-22T15:43:10.815Z,42.35
2019-05-22T15:45:02.862Z,42.35
2019-05-22T15:46:02.807Z,42.52
2019-05-22T15:47:57.044Z,42.33
2019-05-22T15:48:55.066Z,43.01
2019-05-22T15:50:46.946Z,42.82
2019-05-22T15:51:46.890Z,43.10
2019-05-22T15:53:38.939Z,42.89
2019-05-22T15:54:38.919Z,43.30
2019-05-22T15:56:30.987Z,43.47
2019-05-22T15:57:30.969Z,43.37
2019-05-22T15:59:23.131Z,43.28
2019-05-22T16:00:23.218Z,43.66
2019-05-22T16:02:15.073Z,43.57
2019-05-22T16:03:15.012Z,43.85
2019-05-22T16:05:07.183Z,44.15
2019-05-22T16:06:07.162Z,44.05
2019-05-22T16:07:59.359Z,44.05
2019-05-22T16:08:59.306Z,44.05
2019-05-22T16:10:51.851Z,44.05
2019-05-22T16:11:51.337Z,43.95
2019-05-22T16:13:43.517Z,44.05
2019-05-22T16:14:43.478Z,44.05
2019-05-22T16:16:35.641Z,44.43
2019-05-22T16:17:35.615Z,44.05
2019-05-22T16:19:27.703Z,44.43
2019-05-22T16:20:27.653Z,44.24
2019-05-22T16:22:19.816Z,44.73
2019-05-22T16:23:21.649Z,44.80
2019-05-22T16:25:11.957Z,44.22
2019-05-22T16:26:12.076Z,44.32
2019-05-22T16:28:03.970Z,44.63
2019-05-22T16:29:03.941Z,44.15
2019-05-22T16:30:56.139Z,44.05
2019-05-22T16:31:56.070Z,43.76
2019-05-22T16:33:48.242Z,43.95
2019-05-22T16:34:48.206Z,44.05
2019-05-22T16:36:40.395Z,44.05
2019-05-22T16:37:40.575Z,43.66
2019-05-22T16:39:32.430Z,43.66
2019-05-22T16:40:32.611Z,44.05
2019-05-22T16:42:24.548Z,44.24
2019-05-22T16:43:24.643Z,44.15
2019-05-22T16:45:16.594Z,44.90
2019-05-22T16:46:16.840Z,44.32
2019-05-22T16:48:08.626Z,44.80
2019-05-22T16:49:08.611Z,44.90
2019-05-22T16:51:00.776Z,45.28
2019-05-22T16:52:00.719Z,45.28
2019-05-22T16:53:52.810Z,45.38
2019-05-22T16:54:52.755Z,45.00
2019-05-22T16:56:44.835Z,45.18
2019-05-22T16:57:44.790Z,45.55
2019-05-22T16:59:37.307Z,45.75
2019-05-22T17:00:36.720Z,45.94
2019-05-22T17:02:28.712Z,45.94
2019-05-22T17:03:28.881Z,45.94
2019-05-22T17:05:20.739Z,45.75
2019-05-22T17:06:20.931Z,46.13
2019-05-22T17:08:12.776Z,45.84
2019-05-22T17:09:12.750Z,46.03
2019-05-22T17:11:04.808Z,46.03
2019-05-22T17:12:05.085Z,45.84
2019-05-22T17:13:56.825Z,45.94
2019-05-22T17:14:56.790Z,45.55
2019-05-22T17:16:48.910Z,45.75
2019-05-22T17:17:48.845Z,45.65
2019-05-22T17:19:40.894Z,45.65
2019-05-22T17:20:40.859Z,45.94
2019-05-22T17:22:33.048Z,45.75
2019-05-22T17:23:33.000Z,45.94
2019-05-22T17:25:25.190Z,46.03
2019-05-22T17:26:25.361Z,46.13
2019-05-22T17:28:17.215Z,46.42
2019-05-22T17:29:17.191Z,46.23
2019-05-22T17:31:09.336Z,46.23
2019-05-22T17:32:09.303Z,45.92
2019-05-22T17:34:01.413Z,46.11
2019-05-22T17:35:01.422Z,46.23
2019-05-22T17:36:53.428Z,46.20
2019-05-22T17:37:53.372Z,46.20
2019-05-22T17:39:45.543Z,46.40
2019-05-22T17:40:45.509Z,46.51
2019-05-22T17:42:37.597Z,46.30
2019-05-22T17:43:37.537Z,46.49
2019-05-22T17:45:29.614Z,46.69
2019-05-22T17:46:29.810Z,46.78
2019-05-22T17:48:21.670Z,46.49
2019-05-22T17:49:21.856Z,46.49
2019-05-22T17:51:13.682Z,47.07
2019-05-22T17:52:13.650Z,46.78
2019-05-22T17:54:05.639Z,46.78
2019-05-22T17:55:05.586Z,46.78
2019-05-22T17:56:57.767Z,46.59
2019-05-22T17:57:57.913Z,46.59
2019-05-22T17:59:49.681Z,46.40
2019-05-22T18:00:49.654Z,46.97
2019-05-22T18:02:41.841Z,46.69
2019-05-22T18:03:41.783Z,46.69
2019-05-22T18:05:33.855Z,46.88
2019-05-22T18:06:34.049Z,46.88
2019-05-22T18:08:25.911Z,47.27
2019-05-22T18:09:26.096Z,46.97
2019-05-22T18:11:17.939Z,47.24
2019-05-22T18:12:17.887Z,47.45
2019-05-22T18:14:09.982Z,47.53
2019-05-22T18:15:10.107Z,47.53
2019-05-22T18:17:02.009Z,47.44
2019-05-22T18:18:02.027Z,47.44
2019-05-22T18:19:54.150Z,47.24
2019-05-22T18:20:54.730Z,47.53
2019-05-22T18:22:46.191Z,47.92
2019-05-22T18:23:46.127Z,47.63
2019-05-22T18:25:38.196Z,47.92
2019-05-22T18:26:38.162Z,47.44
2019-05-22T18:28:30.250Z,47.63
2019-05-22T18:29:30.213Z,47.63
2019-05-22T18:31:22.270Z,47.53
2019-05-22T18:32:22.459Z,47.72
2019-05-22T18:34:14.436Z,48.30
2019-05-22T18:35:14.603Z,48.11
2019-05-22T18:37:06.456Z,48.40
2019-05-22T18:38:06.407Z,48.21
2019-05-22T18:39:58.483Z,48.11
2019-05-22T18:40:58.449Z,48.30
2019-05-22T18:42:50.524Z,48.11
2019-05-22T18:43:50.467Z,48.08
2019-05-22T18:45:42.553Z,47.92
2019-05-22T18:46:42.529Z,48.08
2019-05-22T18:48:34.696Z,48.08
2019-05-22T18:49:34.675Z,48.30
2019-05-22T18:51:26.812Z,48.47
2019-05-22T18:52:39.986Z,48.47
2019-05-22T18:54:19.182Z,48.18
2019-05-22T18:55:18.831Z,48.38